Time;durP1;ratioP1;P1;durP2;ratioP2;P2;SDS_P1;SDS_P2;PMS_P1;PMS_P2;Temp;Humidity;BMP_temperature;BMP_pressure;BME280_temperature;BME280_humidity;BME280_pressure;Samples;Min_cycle;Max_cycle;Signal;HPM_P1;HPM_P2
2024/01/14 00:00:48;;;;;;;38.30;16.48;;;4.60;57.30;;;;;;5057189;28;20053;-57
2024/01/14 00:03:16;;;;;;;47.22;15.70;;;4.60;57.30;;;;;;5053751;28;20554;-62
2024/01/14 00:05:45;;;;;;;59.17;15.52;;;4.60;57.30;;;;;;5055348;28;20057;-62
2024/01/14 00:08:14;;;;;;;48.17;14.55;;;4.60;57.40;;;;;;5050606;28;20084;-63
2024/01/14 00:10:43;;;;;;;60.55;15.32;;;4.60;57.40;;;;;;5068993;28;20491;-73
2024/01/14 00:13:13;;;;;;;49.15;16.98;;;4.60;57.40;;;;;;5057898;28;20147;-61
2024/01/14 00:15:42;;;;;;;38.70;15.00;;;4.60;57.40;;;;;;5070436;28;20592;-62
2024/01/14 00:18:11;;;;;;;51.65;14.23;;;4.60;57.40;;;;;;5060140;28;20057;-62
2024/01/14 00:20:39;;;;;;;42.78;13.55;;;4.60;57.50;;;;;;5056589;28;20048;-63
2024/01/14 00:23:07;;;;;;;57.80;16.25;;;4.60;57.30;;;;;;5057010;28;20052;-58
2024/01/14 00:25:36;;;;;;;42.03;15.90;;;4.60;57.30;;;;;;5059326;28;20060;-61
2024/01/14 00:28:06;;;;;;;46.67;13.60;;;4.60;57.30;;;;;;5062181;28;20063;-63
2024/01/14 00:30:35;;;;;;;48.95;14.57;;;4.60;57.30;;;;;;5047150;28;20118;-60
2024/01/14 00:33:04;;;;;;;39.78;13.38;;;4.60;57.20;;;;;;5058368;28;20060;-63
2024/01/14 00:35:33;;;;;;;56.40;18.02;;;4.50;57.20;;;;;;5079818;28;20052;-60
2024/01/14 00:38:02;;;;;;;62.63;15.55;;;4.50;57.20;;;;;;5073711;28;20135;-62
2024/01/14 00:40:30;;;;;;;47.65;15.23;;;4.50;57.20;;;;;;5051267;28;20040;-61
2024/01/14 00:42:59;;;;;;;57.38;19.33;;;4.50;57.30;;;;;;5050847;28;20423;-63
2024/01/14 00:45:27;;;;;;;80.40;21.02;;;4.50;57.30;;;;;;5041102;28;20071;-62
2024/01/14 00:47:57;;;;;;;60.33;19.25;;;4.50;57.40;;;;;;5047852;28;20068;-62
2024/01/14 00:50:25;;;;;;;58.92;16.88;;;4.60;57.30;;;;;;5030904;28;20080;-62
2024/01/14 00:52:53;;;;;;;61.53;15.65;;;4.60;57.30;;;;;;5033977;28;20187;-62
2024/01/14 00:55:22;;;;;;;43.67;14.23;;;4.60;57.20;;;;;;5031459;28;20569;-63
2024/01/14 00:57:50;;;;;;;63.67;15.07;;;4.70;57.30;;;;;;5044123;28;20510;-62
2024/01/14 01:00:19;;;;;;;52.60;13.35;;;4.70;57.30;;;;;;5037430;28;20064;-64
2024/01/14 01:02:48;;;;;;;50.90;17.13;;;4.70;57.30;;;;;;5037250;28;20061;-64
2024/01/14 01:05:18;;;;;;;56.17;17.70;;;4.70;57.20;;;;;;5039096;28;20769;-63
2024/01/14 01:07:47;;;;;;;80.53;24.42;;;4.70;57.30;;;;;;5036537;28;20065;-69
2024/01/14 01:10:15;;;;;;;92.57;22.02;;;4.70;57.30;;;;;;5038749;28;20060;-65
2024/01/14 01:12:44;;;;;;;71.53;22.48;;;4.70;57.40;;;;;;5044736;28;20037;-61
2024/01/14 01:15:12;;;;;;;63.10;15.82;;;4.70;57.30;;;;;;5053429;28;20196;-69
2024/01/14 01:17:41;;;;;;;62.78;17.40;;;4.70;57.90;;;;;;5036497;28;20061;-62
2024/01/14 01:20:11;;;;;;;41.95;14.13;;;4.80;57.40;;;;;;5036602;28;20056;-60
2024/01/14 01:22:41;;;;;;;63.75;18.17;;;4.70;57.10;;;;;;5038514;28;20063;-69
2024/01/14 01:25:11;;;;;;;58.47;20.15;;;4.70;57.10;;;;;;5047010;28;20155;-62
2024/01/14 01:27:39;;;;;;;62.78;18.55;;;4.60;57.20;;;;;;5032823;28;20049;-60
2024/01/14 01:30:08;;;;;;;70.80;18.88;;;4.60;57.80;;;;;;5034296;28;20088;-60
2024/01/14 01:32:37;;;;;;;67.53;17.45;;;4.60;57.20;;;;;;5037822;28;20049;-59
2024/01/14 01:35:06;;;;;;;60.20;16.00;;;4.60;57.30;;;;;;5037803;28;20128;-61
2024/01/14 01:37:35;;;;;;;64.63;20.60;;;4.60;57.30;;;;;;5043031;28;20498;-62
2024/01/14 01:40:07;;;;;;;54.63;13.45;;;4.60;57.20;;;;;;5053792;28;20052;-60
2024/01/14 01:42:35;;;;;;;48.45;13.93;;;4.60;57.20;;;;;;5060519;28;20087;-61
2024/01/14 01:45:05;;;;;;;40.95;16.13;;;4.60;57.30;;;;;;5060494;28;20059;-63
2024/01/14 01:47:34;;;;;;;55.38;14.82;;;4.60;57.30;;;;;;5072320;28;20052;-61
2024/01/14 01:50:03;;;;;;;29.20;13.55;;;4.60;57.50;;;;;;5076138;28;20049;-61
2024/01/14 01:52:32;;;;;;;58.45;15.80;;;4.50;57.30;;;;;;5048330;28;22208;-63
2024/01/14 01:55:05;;;;;;;47.95;13.77;;;4.40;57.10;;;;;;5043183;28;20101;-64
2024/01/14 01:57:38;;;;;;;28.23;12.27;;;4.40;57.30;;;;;;5050726;28;20064;-61
2024/01/14 02:00:09;;;;;;;51.45;15.40;;;4.40;57.20;;;;;;5063202;28;20151;-62
2024/01/14 02:02:42;;;;;;;41.65;15.48;;;4.30;57.30;;;;;;5064787;28;20044;-60
2024/01/14 02:05:11;;;;;;;50.70;16.05;;;4.40;57.30;;;;;;5055995;28;20078;-61
2024/01/14 02:07:40;;;;;;;52.28;16.30;;;4.40;57.30;;;;;;5065238;28;20149;-62
2024/01/14 02:10:11;;;;;;;28.73;11.35;;;4.40;57.30;;;;;;5064813;28;20052;-62
2024/01/14 02:12:40;;;;;;;62.78;19.95;;;4.40;57.30;;;;;;5058237;28;20068;-61
2024/01/14 02:15:09;;;;;;;47.70;16.25;;;4.40;57.40;;;;;;5058450;28;20052;-62
2024/01/14 02:17:38;;;;;;;55.60;13.80;;;4.40;57.40;;;;;;5051747;28;20088;-63
2024/01/14 02:20:09;;;;;;;42.33;14.75;;;4.40;57.40;;;;;;5071109;28;20067;-61
2024/01/14 02:22:41;;;;;;;41.42;14.63;;;4.50;57.50;;;;;;5057846;28;20047;-61
2024/01/14 02:25:11;;;;;;;52.40;13.65;;;4.50;57.30;;;;;;5059945;28;20056;-61
2024/01/14 02:27:39;;;;;;;75.85;19.98;;;4.60;57.30;;;;;;5065532;28;20056;-61
2024/01/14 02:30:10;;;;;;;35.67;14.23;;;4.60;57.20;;;;;;5047497;28;20056;-61
2024/01/14 02:32:39;;;;;;;46.03;14.35;;;4.60;57.20;;;;;;5061153;28;20068;-60
2024/01/14 02:35:08;;;;;;;46.63;19.35;;;4.60;57.20;;;;;;5058851;28;20067;-61
2024/01/14 02:37:38;;;;;;;60.45;18.98;;;4.60;57.10;;;;;;5054649;28;20118;-62
2024/01/14 02:40:08;;;;;;;89.25;20.90;;;4.70;57.20;;;;;;5046626;28;20052;-60
2024/01/14 02:42:40;;;;;;;72.10;23.23;;;4.70;57.20;;;;;;5051461;28;20051;-61
2024/01/14 02:45:09;;;;;;;47.22;16.25;;;4.70;57.80;;;;;;5029093;28;20061;-62
2024/01/14 02:47:37;;;;;;;58.20;18.42;;;4.70;57.20;;;;;;5037077;28;20145;-70
2024/01/14 02:50:07;;;;;;;36.40;14.15;;;4.70;57.40;;;;;;5055684;28;20064;-62
2024/01/14 02:52:36;;;;;;;51.80;15.95;;;4.70;57.30;;;;;;5040182;28;20065;-61
2024/01/14 02:55:05;;;;;;;39.78;15.45;;;4.70;57.10;;;;;;5040104;28;20080;-63
2024/01/14 02:57:33;;;;;;;58.15;17.83;;;4.70;57.10;;;;;;5036917;28;20079;-61
2024/01/14 03:00:04;;;;;;;62.53;20.95;;;4.60;57.00;;;;;;5035720;28;20796;-62
2024/01/14 03:02:32;;;;;;;30.17;13.05;;;4.50;57.10;;;;;;5031848;28;20044;-63
2024/01/14 03:05:00;;;;;;;42.30;12.35;;;4.50;57.20;;;;;;5038329;28;20064;-61
2024/01/14 03:07:29;;;;;;;48.85;14.00;;;4.50;57.30;;;;;;5037029;28;20620;-61
2024/01/14 03:09:57;;;;;;;39.17;12.63;;;4.50;57.40;;;;;;5052023;28;20107;-62
2024/01/14 03:12:25;;;;;;;43.97;16.42;;;4.50;57.50;;;;;;5030243;28;20040;-61
2024/01/14 03:14:54;;;;;;;39.88;13.52;;;4.50;57.50;;;;;;5051795;28;20656;-61
2024/01/14 03:17:23;;;;;;;47.65;13.88;;;4.50;57.40;;;;;;5047506;28;20064;-63
2024/01/14 03:19:52;;;;;;;51.72;18.98;;;4.50;57.30;;;;;;5031807;28;20079;-62
2024/01/14 03:22:20;;;;;;;42.65;12.95;;;4.60;57.30;;;;;;5044379;28;20053;-61
2024/01/14 03:24:49;;;;;;;46.05;19.08;;;4.60;57.30;;;;;;5034826;28;20049;-61
2024/01/14 03:27:17;;;;;;;46.40;14.20;;;4.60;57.90;;;;;;5054929;28;20573;-62
2024/01/14 03:29:45;;;;;;;57.00;14.63;;;4.60;57.30;;;;;;5025333;28;20060;-62
2024/01/14 03:32:14;;;;;;;33.25;12.30;;;4.60;57.30;;;;;;5045293;28;20049;-60
2024/01/14 03:34:43;;;;;;;37.72;11.00;;;4.60;57.20;;;;;;5023346;28;20053;-61
2024/01/14 03:37:12;;;;;;;43.85;15.98;;;4.60;57.20;;;;;;5038058;28;20410;-61
2024/01/14 03:39:40;;;;;;;56.72;13.98;;;4.50;57.10;;;;;;5029526;28;20243;-58
2024/01/14 03:42:08;;;;;;;44.88;15.23;;;4.40;57.10;;;;;;5038627;28;20521;-62
2024/01/14 03:44:37;;;;;;;58.85;18.60;;;4.40;57.10;;;;;;5051728;28;20712;-61
2024/01/14 03:47:05;;;;;;;40.75;12.15;;;4.30;57.30;;;;;;5056314;28;20064;-61
2024/01/14 03:49:34;;;;;;;46.58;17.17;;;4.30;57.10;;;;;;5059484;28;20091;-60
2024/01/14 03:52:04;;;;;;;60.67;16.52;;;4.20;57.10;;;;;;5053772;28;20056;-62
2024/01/14 03:54:32;;;;;;;38.50;16.08;;;4.20;57.20;;;;;;5050871;28;20052;-62
2024/01/14 03:57:01;;;;;;;42.85;14.18;;;4.20;57.30;;;;;;5056433;28;20710;-61
2024/01/14 03:59:29;;;;;;;66.80;18.23;;;4.20;57.40;;;;;;5052263;28;20096;-63
2024/01/14 04:01:57;;;;;;;57.83;14.45;;;4.20;57.50;;;;;;5056612;28;20156;-59
2024/01/14 04:04:25;;;;;;;36.17;12.75;;;4.20;57.40;;;;;;5043941;28;20118;-61
2024/01/14 04:06:53;;;;;;;45.30;14.13;;;4.10;57.30;;;;;;5059759;28;20498;-63
2024/01/14 04:09:23;;;;;;;62.10;14.88;;;4.10;57.30;;;;;;5056925;28;20063;-62
2024/01/14 04:11:51;;;;;;;38.05;11.43;;;4.00;57.30;;;;;;5059594;28;20052;-61
2024/01/14 04:14:20;;;;;;;31.40;12.38;;;4.10;57.40;;;;;;5049774;28;20098;-61
2024/01/14 04:16:48;;;;;;;32.45;11.07;;;4.10;57.30;;;;;;5056123;28;20458;-67
2024/01/14 04:19:16;;;;;;;47.47;11.85;;;4.00;57.40;;;;;;5058137;28;20052;-60
2024/01/14 04:21:45;;;;;;;38.30;11.05;;;4.00;57.40;;;;;;5052425;28;20053;-62
2024/01/14 04:24:13;;;;;;;33.17;9.82;;;4.00;57.30;;;;;;5052110;28;20060;-62
2024/01/14 04:26:43;;;;;;;39.20;14.55;;;3.90;57.00;;;;;;5062917;28;20505;-61
2024/01/14 04:29:11;;;;;;;28.45;10.52;;;3.90;57.20;;;;;;5063881;28;20059;-63
2024/01/14 04:31:39;;;;;;;38.63;14.65;;;3.90;57.10;;;;;;5057620;28;20079;-59
2024/01/14 04:34:09;;;;;;;25.05;12.07;;;3.80;57.10;;;;;;5050990;28;20048;-64
2024/01/14 04:36:38;;;;;;;46.83;12.00;;;3.70;57.10;;;;;;5075592;28;20060;-63
2024/01/14 04:39:07;;;;;;;42.22;11.27;;;3.70;57.10;;;;;;5050634;28;20060;-60
2024/01/14 04:41:36;;;;;;;39.53;12.13;;;3.60;57.10;;;;;;5061119;28;20064;-61
2024/01/14 04:44:06;;;;;;;31.27;9.98;;;3.50;57.20;;;;;;5040683;28;20063;-62
2024/01/14 04:46:34;;;;;;;46.33;13.70;;;3.50;57.30;;;;;;5046333;28;20059;-61
2024/01/14 04:49:02;;;;;;;24.98;9.45;;;3.50;57.30;;;;;;5037677;28;20060;-61
2024/01/14 04:51:31;;;;;;;50.50;15.88;;;3.40;57.30;;;;;;5055329;28;20135;-59
2024/01/14 04:53:59;;;;;;;32.55;10.18;;;3.40;57.80;;;;;;5038931;28;20060;-62
2024/01/14 04:56:27;;;;;;;38.63;10.93;;;3.40;57.30;;;;;;5030862;28;20786;-62
2024/01/14 04:58:56;;;;;;;27.95;12.10;;;3.30;57.30;;;;;;5038918;28;20063;-60
2024/01/14 05:01:26;;;;;;;39.67;13.18;;;3.30;57.40;;;;;;5043789;28;20532;-61
2024/01/14 05:03:54;;;;;;;31.48;7.82;;;3.30;58.00;;;;;;5047184;28;20064;-62
2024/01/14 05:06:22;;;;;;;59.22;13.63;;;3.30;57.40;;;;;;5033142;28;20053;-62
2024/01/14 05:08:51;;;;;;;66.07;16.52;;;3.40;57.40;;;;;;5046158;28;20044;-62
2024/01/14 05:11:19;;;;;;;42.88;10.88;;;3.40;57.30;;;;;;5045563;28;20168;-62
2024/01/14 05:13:48;;;;;;;35.72;13.70;;;3.40;57.30;;;;;;5041785;28;20053;-62
2024/01/14 05:16:16;;;;;;;44.33;12.27;;;3.40;57.30;;;;;;5028910;28;20061;-64
2024/01/14 05:18:46;;;;;;;28.42;12.75;;;3.40;57.40;;;;;;5040617;28;20111;-63
2024/01/14 05:21:17;;;;;;;32.88;13.15;;;3.50;58.10;;;;;;5045657;28;20196;-62
2024/01/14 05:23:45;;;;;;;44.17;13.88;;;3.60;57.60;;;;;;5068198;28;20537;-61
2024/01/14 05:26:14;;;;;;;37.08;13.43;;;3.60;57.50;;;;;;5032060;28;20085;-62
2024/01/14 05:28:42;;;;;;;34.80;14.02;;;3.70;57.50;;;;;;5051789;28;20540;-63
2024/01/14 05:31:10;;;;;;;46.03;13.55;;;3.80;57.50;;;;;;5030971;28;20045;-59
2024/01/14 05:33:39;;;;;;;40.03;17.42;;;3.80;57.50;;;;;;5064795;28;20567;-62
2024/01/14 05:36:12;;;;;;;37.45;14.32;;;3.90;57.40;;;;;;5035110;28;20053;-61
2024/01/14 05:38:43;;;;;;;48.35;16.10;;;3.90;57.30;;;;;;5031234;28;20075;-62
2024/01/14 05:41:13;;;;;;;91.57;15.95;;;3.90;57.30;;;;;;5042390;28;20577;-62
2024/01/14 05:43:42;;;;;;;52.33;16.27;;;3.90;57.30;;;;;;5050658;28;20520;-62
2024/01/14 05:46:11;;;;;;;58.53;14.55;;;3.90;57.30;;;;;;5035959;28;20448;-66
2024/01/14 05:48:39;;;;;;;50.55;15.32;;;4.00;57.40;;;;;;5042759;28;20056;-62
2024/01/14 05:51:09;;;;;;;69.63;20.48;;;4.00;57.30;;;;;;5042940;28;20577;-63
2024/01/14 05:53:38;;;;;;;40.95;13.27;;;4.00;57.30;;;;;;5040725;28;20123;-64
2024/01/14 05:56:11;;;;;;;38.50;13.48;;;4.10;57.90;;;;;;5035290;28;20068;-61
2024/01/14 05:58:42;;;;;;;52.25;11.80;;;4.10;57.20;;;;;;5040299;28;20052;-63
2024/01/14 06:01:10;;;;;;;52.33;13.32;;;4.00;57.10;;;;;;5055715;28;20064;-63
2024/01/14 06:03:38;;;;;;;32.53;14.77;;;4.00;57.10;;;;;;5049594;28;20068;-62
2024/01/14 06:06:10;;;;;;;40.42;13.05;;;4.10;57.30;;;;;;5041071;28;20060;-61
2024/01/14 06:08:41;;;;;;;44.88;16.23;;;4.10;57.30;;;;;;5038634;28;20138;-62
2024/01/14 06:11:09;;;;;;;46.75;14.20;;;4.10;57.10;;;;;;5037139;28;20069;-61
2024/01/14 06:13:38;;;;;;;42.00;17.10;;;4.10;57.10;;;;;;5045606;28;20056;-62
2024/01/14 06:16:07;;;;;;;46.03;12.40;;;4.10;57.20;;;;;;5044939;28;20115;-61
2024/01/14 06:18:36;;;;;;;45.45;15.73;;;4.10;57.20;;;;;;5033178;28;20511;-60
2024/01/14 06:21:06;;;;;;;56.72;14.70;;;4.10;57.20;;;;;;5053157;28;20053;-62
2024/01/14 06:23:36;;;;;;;49.15;12.05;;;4.00;57.20;;;;;;5037562;28;20057;-61
2024/01/14 06:26:05;;;;;;;42.70;14.15;;;4.10;57.90;;;;;;5037465;28;20151;-62
2024/01/14 06:28:34;;;;;;;43.58;15.80;;;4.10;57.30;;;;;;5034346;28;20053;-59
2024/01/14 06:31:02;;;;;;;27.35;13.50;;;4.10;57.20;;;;;;5041977;28;20067;-60
2024/01/14 06:33:32;;;;;;;63.55;16.35;;;4.10;57.20;;;;;;5043013;28;20060;-63
2024/01/14 06:36:00;;;;;;;43.20;12.20;;;4.10;57.20;;;;;;5039608;28;20068;-62
2024/01/14 06:38:29;;;;;;;56.00;15.75;;;4.10;57.30;;;;;;5037298;28;20758;-62
2024/01/14 06:40:58;;;;;;;65.72;18.83;;;4.10;57.30;;;;;;5034468;28;20484;-62
2024/01/14 06:43:37;;;;;;;38.75;13.52;;;4.10;57.30;;;;;;5037809;28;20055;-63
2024/01/14 06:46:06;;;;;;;45.10;15.02;;;4.10;57.30;;;;;;5039664;28;20129;-62
2024/01/14 06:48:35;;;;;;;67.75;14.63;;;4.10;57.20;;;;;;5029881;28;20049;-63
2024/01/14 06:51:07;;;;;;;50.85;12.38;;;4.10;57.20;;;;;;5026138;28;20060;-63
2024/01/14 06:53:36;;;;;;;47.25;13.43;;;4.10;57.20;;;;;;5033945;28;20407;-62
2024/01/14 06:56:07;;;;;;;65.13;15.18;;;4.10;57.30;;;;;;5034277;28;20063;-63
2024/01/14 06:58:35;;;;;;;28.00;11.98;;;4.10;57.30;;;;;;5029328;28;20049;-64
2024/01/14 07:01:04;;;;;;;40.40;12.80;;;4.10;57.30;;;;;;5040427;28;20057;-63
2024/01/14 07:03:35;;;;;;;31.33;12.02;;;4.10;57.10;;;;;;5050895;28;20048;-63
2024/01/14 07:06:05;;;;;;;40.65;14.30;;;4.10;57.00;;;;;;5037314;28;20584;-64
2024/01/14 07:08:33;;;;;;;35.70;12.05;;;4.10;57.10;;;;;;5031245;28;20143;-65
2024/01/14 07:11:01;;;;;;;36.22;12.27;;;4.00;57.10;;;;;;5042300;28;20061;-63
2024/01/14 07:13:31;;;;;;;33.33;11.82;;;4.10;57.80;;;;;;5031191;28;20403;-65
2024/01/14 07:15:59;;;;;;;54.90;10.68;;;4.10;57.80;;;;;;5032484;28;20052;-65
2024/01/14 07:18:28;;;;;;;30.02;11.45;;;4.10;57.10;;;;;;5052960;28;20044;-64
2024/01/14 07:20:57;;;;;;;35.88;11.63;;;4.10;57.70;;;;;;5035023;28;20092;-65
2024/01/14 07:23:26;;;;;;;27.88;9.85;;;4.10;57.10;;;;;;5042344;28;20084;-64
2024/01/14 07:26:15;;;;;;;40.97;14.52;;;4.20;57.20;;;;;;5029266;28;20048;-66
2024/01/14 07:28:45;;;;;;;61.35;13.32;;;4.10;57.00;;;;;;5039150;28;20048;-65
2024/01/14 07:31:20;;;;;;;35.90;14.48;;;4.10;57.10;;;;;;5023031;28;20061;-65
2024/01/14 07:33:50;;;;;;;54.13;13.27;;;4.10;57.10;;;;;;5053853;28;20052;-62
2024/01/14 07:36:20;;;;;;;47.88;14.45;;;4.20;57.10;;;;;;5043664;28;20059;-64
2024/01/14 07:38:50;;;;;;;41.95;10.50;;;4.20;57.20;;;;;;5036983;28;20048;-63
2024/01/14 07:41:18;;;;;;;38.90;12.90;;;4.30;57.30;;;;;;5039688;28;20147;-63
2024/01/14 07:43:48;;;;;;;45.53;12.43;;;4.30;57.20;;;;;;5038197;28;20749;-63
2024/01/14 07:46:17;;;;;;;41.80;14.80;;;4.40;57.20;;;;;;5042295;28;20930;-62
2024/01/14 07:48:45;;;;;;;44.05;15.23;;;4.50;57.10;;;;;;5039103;28;20163;-63
2024/01/14 07:51:13;;;;;;;42.42;11.90;;;4.50;57.00;;;;;;5038027;28;20716;-64
2024/01/14 07:53:42;;;;;;;58.35;15.80;;;4.50;57.00;;;;;;5041462;28;20056;-63
2024/01/14 07:56:10;;;;;;;56.28;17.25;;;4.50;57.00;;;;;;5033356;28;20064;-65
2024/01/14 07:58:39;;;;;;;36.33;11.82;;;4.50;57.10;;;;;;5033817;28;20060;-65
2024/01/14 08:01:08;;;;;;;47.65;14.60;;;4.60;57.10;;;;;;5049430;28;20060;-64
2024/01/14 08:03:37;;;;;;;57.53;14.13;;;4.60;57.00;;;;;;5037672;28;20057;-64
2024/01/14 08:06:06;;;;;;;58.63;16.58;;;4.60;57.00;;;;;;5023759;28;20060;-64
2024/01/14 08:08:35;;;;;;;56.70;15.07;;;4.70;57.10;;;;;;5027954;28;20985;-66
2024/01/14 08:11:03;;;;;;;47.83;12.10;;;4.70;57.10;;;;;;5034810;28;20063;-63
2024/01/14 08:13:32;;;;;;;55.53;16.08;;;4.80;57.10;;;;;;5046674;28;20056;-64
2024/01/14 08:16:00;;;;;;;39.50;10.32;;;4.80;57.00;;;;;;5045787;28;20476;-64
2024/01/14 08:18:32;;;;;;;49.65;13.80;;;4.80;57.00;;;;;;5045987;28;20244;-64
2024/01/14 08:21:01;;;;;;;41.47;14.32;;;4.80;57.10;;;;;;5036991;28;20158;-63
2024/01/14 08:23:32;;;;;;;37.85;10.02;;;4.90;57.20;;;;;;5050385;28;20070;-63
2024/01/14 08:26:02;;;;;;;37.88;14.05;;;5.00;57.30;;;;;;5038644;28;20550;-63
2024/01/14 08:28:32;;;;;;;32.58;10.55;;;5.20;57.30;;;;;;5045121;28;20693;-64
2024/01/14 08:31:01;;;;;;;34.13;13.32;;;5.30;57.20;;;;;;5042842;28;20570;-62
2024/01/14 08:33:30;;;;;;;35.45;12.18;;;5.50;57.10;;;;;;5044257;28;20076;-64
2024/01/14 08:36:01;;;;;;;48.88;17.83;;;5.70;57.10;;;;;;5052369;28;20065;-60
2024/01/14 08:38:31;;;;;;;43.58;12.50;;;5.70;56.80;;;;;;5032464;28;20684;-63
2024/01/14 08:40:59;;;;;;;76.50;13.95;;;5.70;56.50;;;;;;5043337;28;20126;-65
2024/01/14 08:43:28;;;;;;;34.20;11.05;;;5.60;56.50;;;;;;5043663;28;20136;-62
2024/01/14 08:45:57;;;;;;;34.72;12.35;;;5.50;56.60;;;;;;5042101;28;20041;-64
2024/01/14 08:48:25;;;;;;;70.00;17.98;;;5.40;56.70;;;;;;5050362;28;20140;-64
2024/01/14 08:50:53;;;;;;;43.55;14.98;;;5.40;56.80;;;;;;5041412;28;20048;-63
2024/01/14 08:53:23;;;;;;;70.60;18.05;;;5.40;57.50;;;;;;5056523;28;20072;-63
2024/01/14 08:55:52;;;;;;;29.60;11.95;;;5.40;56.90;;;;;;5057102;28;20490;-62
2024/01/14 08:58:20;;;;;;;44.13;14.48;;;5.40;56.70;;;;;;5037082;28;20079;-63
2024/01/14 09:00:49;;;;;;;49.53;14.35;;;5.40;56.90;;;;;;5044531;28;20541;-63
2024/01/14 09:03:18;;;;;;;63.83;14.73;;;5.50;57.00;;;;;;5036005;28;20060;-63
2024/01/14 09:05:47;;;;;;;48.47;8.23;;;5.50;56.90;;;;;;5042708;28;20063;-61
2024/01/14 09:08:16;;;;;;;51.30;15.25;;;5.50;57.10;;;;;;5036253;28;20147;-63
2024/01/14 09:10:47;;;;;;;41.60;12.93;;;5.60;57.00;;;;;;5046268;28;20060;-63
2024/01/14 09:13:17;;;;;;;37.15;11.30;;;5.50;57.00;;;;;;5036104;28;20093;-64
2024/01/14 09:15:46;;;;;;;41.70;13.57;;;5.50;56.90;;;;;;5044312;28;20053;-64
2024/01/14 09:18:14;;;;;;;42.60;13.00;;;5.40;57.20;;;;;;5043591;28;20074;-64
2024/01/14 09:20:43;;;;;;;33.28;14.00;;;5.40;57.60;;;;;;5037099;28;20168;-61
2024/01/14 09:23:12;;;;;;;49.38;12.77;;;5.40;57.70;;;;;;5059482;28;20426;-64
2024/01/14 09:25:40;;;;;;;62.35;15.13;;;5.40;58.10;;;;;;5043953;28;20839;-63
2024/01/14 09:28:10;;;;;;;32.00;10.45;;;5.50;58.50;;;;;;5041704;28;20052;-65
2024/01/14 09:30:38;;;;;;;30.27;11.88;;;5.70;58.80;;;;;;5040252;28;20064;-62
2024/01/14 09:33:07;;;;;;;34.15;10.82;;;5.80;58.40;;;;;;5049835;28;20081;-64
2024/01/14 09:35:35;;;;;;;57.45;15.65;;;5.90;58.40;;;;;;5054549;28;20048;-66
2024/01/14 09:38:04;;;;;;;28.80;6.90;;;6.00;58.60;;;;;;5054363;28;20490;-63
2024/01/14 09:40:33;;;;;;;36.47;11.80;;;6.10;58.80;;;;;;5051707;28;20083;-63
2024/01/14 09:43:05;;;;;;;31.10;11.43;;;6.30;58.60;;;;;;5063727;28;20071;-62
2024/01/14 09:45:35;;;;;;;27.67;10.95;;;6.30;58.50;;;;;;5042514;28;20083;-61
2024/01/14 09:48:18;;;;;;;34.05;10.57;;;6.50;58.70;;;;;;5035144;28;20069;-63
2024/01/14 09:50:48;;;;;;;40.58;14.68;;;6.70;58.60;;;;;;5043580;28;20053;-63
2024/01/14 09:53:20;;;;;;;24.13;10.48;;;6.90;58.50;;;;;;5039836;28;20699;-63
2024/01/14 09:55:50;;;;;;;38.85;11.82;;;7.30;58.40;;;;;;5040014;28;20052;-62
2024/01/14 09:58:21;;;;;;;50.33;14.85;;;7.70;58.20;;;;;;5039251;28;20135;-65
2024/01/14 10:00:53;;;;;;;45.35;11.48;;;8.10;57.60;;;;;;5065767;28;20048;-63
2024/01/14 10:03:22;;;;;;;44.08;12.90;;;8.80;56.90;;;;;;5037978;28;20045;-66
2024/01/14 10:05:53;;;;;;;43.60;12.23;;;9.50;56.60;;;;;;5059461;28;20040;-63
2024/01/14 10:08:22;;;;;;;60.67;15.82;;;10.10;55.90;;;;;;5036104;28;20053;-63
2024/01/14 10:10:53;;;;;;;74.75;18.13;;;10.30;54.10;;;;;;5047858;28;20063;-63
2024/01/14 10:13:26;;;;;;;49.17;16.67;;;10.70;54.20;;;;;;5057377;28;20791;-64
2024/01/14 10:16:07;;;;;;;49.05;14.85;;;11.10;53.50;;;;;;5039041;28;20057;-65
2024/01/14 10:19:06;;;;;;;56.70;14.80;;;11.00;52.50;;;;;;5038226;28;20052;-60
2024/01/14 10:21:34;;;;;;;36.45;12.93;;;10.80;52.60;;;;;;5042501;28;20056;-63
2024/01/14 10:24:06;;;;;;;54.25;14.98;;;10.60;52.80;;;;;;5044544;28;20048;-64
2024/01/14 10:26:36;;;;;;;55.25;12.38;;;10.70;53.00;;;;;;5050983;28;20048;-65
2024/01/14 10:29:04;;;;;;;50.03;15.77;;;10.80;53.20;;;;;;5044773;28;20053;-71
2024/01/14 10:31:34;;;;;;;35.75;11.85;;;11.10;52.80;;;;;;5039986;28;20084;-60
2024/01/14 10:34:04;;;;;;;37.47;11.23;;;11.10;52.40;;;;;;5060948;28;20049;-65
2024/01/14 10:36:33;;;;;;;62.42;17.30;;;11.20;52.50;;;;;;5044306;28;20514;-66
2024/01/14 10:39:04;;;;;;;42.42;13.13;;;11.30;52.30;;;;;;5057272;28;20102;-65
2024/01/14 10:41:33;;;;;;;42.63;12.98;;;11.40;52.10;;;;;;5042647;28;20080;-64
2024/01/14 10:44:02;;;;;;;30.73;12.15;;;11.70;52.30;;;;;;5036278;28;20858;-64
2024/01/14 10:46:31;;;;;;;45.63;13.77;;;12.10;52.20;;;;;;5032453;28;20507;-65
2024/01/14 10:49:06;;;;;;;89.53;15.32;;;12.50;51.80;;;;;;5034147;28;20078;-66
2024/01/14 10:51:40;;;;;;;67.33;14.63;;;13.10;51.20;;;;;;5037489;28;20049;-64
2024/01/14 10:54:20;;;;;;;80.72;16.05;;;13.60;50.60;;;;;;5035419;28;20338;-64
2024/01/14 10:56:56;;;;;;;44.40;12.90;;;13.90;50.00;;;;;;5041136;28;20056;-64
2024/01/14 10:59:27;;;;;;;;;;;14.20;49.60;;;;;;5032923;28;20478;-63
2024/01/14 11:01:58;;;;;;;45.35;13.15;;;14.40;49.30;;;;;;5046622;28;19975;-64
2024/01/14 11:04:28;;;;;;;56.00;13.68;;;14.50;49.00;;;;;;5035567;28;20057;-66
2024/01/14 11:06:57;;;;;;;59.63;15.70;;;14.50;48.50;;;;;;5046471;28;20059;-66
2024/01/14 11:09:25;;;;;;;49.83;14.30;;;14.40;48.50;;;;;;5046552;28;20092;-65
2024/01/14 11:12:02;;;;;;;53.53;14.57;;;14.10;48.30;;;;;;5054168;28;20060;-65
2024/01/14 11:14:35;;;;;;;51.15;15.77;;;13.80;48.30;;;;;;5031756;28;20052;-64
2024/01/14 11:17:14;;;;;;;51.10;13.35;;;13.40;48.60;;;;;;5046375;28;20064;-63
2024/01/14 11:19:44;;;;;;;50.25;14.35;;;12.90;48.90;;;;;;5035685;28;20052;-65
2024/01/14 11:22:19;;;;;;;63.78;14.60;;;12.40;49.30;;;;;;5032550;28;20138;-63
2024/01/14 11:25:03;;;;;;;67.43;13.55;;;11.90;49.80;;;;;;5036489;28;20057;-66
2024/01/14 11:27:33;;;;;;;76.10;15.18;;;11.40;50.30;;;;;;5050728;28;20406;-64
2024/01/14 11:30:01;;;;;;;48.03;12.45;;;10.90;50.40;;;;;;5042565;28;20060;-65
2024/01/14 11:32:30;;;;;;;42.28;15.60;;;10.40;50.90;;;;;;5033449;28;21145;-64
2024/01/14 11:35:02;;;;;;;47.42;13.80;;;9.80;51.30;;;;;;5040351;28;20057;-65
2024/01/14 11:37:48;;;;;;;35.58;12.25;;;9.30;51.70;;;;;;5045523;28;20077;-66
2024/01/14 11:40:37;;;;;;;46.55;12.13;;;8.90;52.30;;;;;;5031324;28;20812;-66
2024/01/14 11:43:08;;;;;;;46.17;13.65;;;8.30;52.60;;;;;;5041287;28;20051;-66
2024/01/14 11:45:40;;;;;;;48.55;11.98;;;8.00;53.10;;;;;;5046033;28;20150;-63
2024/01/14 11:48:13;;;;;;;41.35;10.30;;;7.70;53.60;;;;;;5040351;28;20060;-62
2024/01/14 11:50:44;;;;;;;38.88;11.35;;;7.50;53.90;;;;;;5031038;28;20065;-62
2024/01/14 11:53:13;;;;;;;29.55;13.85;;;7.40;54.10;;;;;;5038325;28;20144;-62
2024/01/14 11:55:42;;;;;;;43.10;13.45;;;7.20;54.20;;;;;;5041244;28;20067;-64
2024/01/14 11:58:17;;;;;;;42.92;12.05;;;7.10;54.30;;;;;;5037776;28;20053;-64
2024/01/14 12:00:49;;;;;;;36.55;12.00;;;7.10;54.50;;;;;;5037882;28;20051;-65
2024/01/14 12:03:19;;;;;;;39.40;10.60;;;7.10;54.60;;;;;;5040689;28;20836;-64
2024/01/14 12:05:50;;;;;;;66.32;13.77;;;7.10;54.60;;;;;;5057055;28;20044;-65
2024/01/14 12:08:20;;;;;;;27.30;7.97;;;7.10;54.70;;;;;;5032604;28;20045;-69
2024/01/14 12:10:50;;;;;;;31.85;11.05;;;7.10;54.70;;;;;;5037004;28;20063;-64
2024/01/14 12:13:18;;;;;;;29.38;10.10;;;7.10;54.70;;;;;;5041151;28;20065;-62
2024/01/14 12:15:47;;;;;;;38.22;10.80;;;7.10;55.00;;;;;;5033010;28;20053;-65
2024/01/14 12:18:40;;;;;;;45.65;13.15;;;7.10;54.80;;;;;;5033374;28;20138;-66
2024/01/14 12:21:17;;;;;;;35.95;10.13;;;7.10;54.80;;;;;;5036151;28;20056;-63
2024/01/14 12:23:59;;;;;;;45.97;10.75;;;7.20;54.80;;;;;;5039450;28;20088;-64
2024/01/14 12:26:28;;;;;;;37.53;11.43;;;7.20;54.80;;;;;;5028116;28;20107;-63
2024/01/14 12:28:56;;;;;;;42.97;9.40;;;7.20;54.80;;;;;;5026663;28;20069;-65
2024/01/14 12:31:25;;;;;;;39.95;12.80;;;7.30;54.80;;;;;;5053898;28;20063;-64
2024/01/14 12:34:02;;;;;;;53.13;11.82;;;7.30;54.60;;;;;;5031472;28;20064;-67
2024/01/14 12:36:34;;;;;;;45.72;11.05;;;7.30;54.70;;;;;;5043441;28;20401;-67
2024/01/14 12:39:17;;;;;;;60.10;10.05;;;7.30;54.70;;;;;;5025177;28;20048;-65
2024/01/14 12:41:45;;;;;;;28.23;9.38;;;7.30;54.60;;;;;;5027657;28;20052;-65
2024/01/14 12:44:24;;;;;;;36.60;11.55;;;7.30;54.60;;;;;;5043132;28;20106;-64
2024/01/14 12:47:04;;;;;;;33.13;10.65;;;7.30;54.60;;;;;;5032371;28;20079;-64
2024/01/14 12:49:33;;;;;;;30.83;9.85;;;7.30;54.70;;;;;;5035548;28;20080;-64